createdAt,value
2022-08-05T00:01:27.747Z,66.50
2022-08-05T00:06:33.269Z,66.40
2022-08-05T00:11:48.355Z,66.20
2022-08-05T00:16:52.573Z,66.50
2022-08-05T00:21:56.105Z,66.60
2022-08-05T00:26:59.373Z,66.50
2022-08-05T00:32:13.217Z,66.60
2022-08-05T00:37:17.474Z,66.50
2022-08-05T00:42:32.715Z,66.50
2022-08-05T00:47:56.817Z,66.30
2022-08-05T00:52:57.582Z,66.50
2022-08-05T00:58:00.145Z,66.60
2022-08-05T01:03:02.633Z,66.30
2022-08-05T01:08:39.225Z,66.50
2022-08-05T01:13:57.302Z,66.40
2022-08-05T01:19:15.265Z,66.70
2022-08-05T01:24:58.375Z,66.90
2022-08-05T01:30:03.599Z,66.60
2022-08-05T01:35:11.832Z,66.60
2022-08-05T01:40:35.084Z,66.50
2022-08-05T01:45:43.033Z,66.50
2022-08-05T01:50:50.965Z,66.60
2022-08-05T01:55:58.940Z,66.50
2022-08-05T02:01:07.675Z,66.40
2022-08-05T02:06:24.244Z,66.40
2022-08-05T02:11:48.127Z,66.30
2022-08-05T02:16:56.330Z,66.30
2022-08-05T02:22:08.474Z,66.20
2022-08-05T02:27:12.677Z,66.20
2022-08-05T02:32:23.679Z,66.00
2022-08-05T02:37:34.061Z,66.10
2022-08-05T02:42:37.521Z,66.00
2022-08-05T02:48:06.593Z,66.00
2022-08-05T02:53:03.880Z,65.90
2022-08-05T02:58:11.319Z,65.60
2022-08-05T03:03:23.770Z,65.70
2022-08-05T03:08:26.898Z,65.70
2022-08-05T03:13:51.663Z,65.40
2022-08-05T03:18:54.238Z,65.50
2022-08-05T03:23:57.820Z,65.50
2022-08-05T03:29:00.993Z,65.60
2022-08-05T03:34:04.738Z,65.30
2022-08-05T03:39:08.145Z,65.20
2022-08-05T03:44:19.909Z,65.40
2022-08-05T03:49:24.200Z,65.30
2022-08-05T03:55:51.034Z,65.60
2022-08-05T04:00:16.423Z,65.50
2022-08-05T04:05:20.152Z,65.30
2022-08-05T04:10:27.634Z,65.30
2022-08-05T04:15:33.216Z,65.30
2022-08-05T04:20:41.130Z,65.30
2022-08-05T04:26:00.481Z,65.30
2022-08-05T04:31:08.284Z,65.30
2022-08-05T04:36:38.209Z,65.30
2022-08-05T04:41:36.877Z,65.30
2022-08-05T04:46:40.927Z,65.60
2022-08-05T04:51:50.679Z,65.50
2022-08-05T04:57:02.882Z,65.60
2022-08-05T05:02:07.817Z,65.80
2022-08-05T05:07:29.733Z,65.80
2022-08-05T05:12:36.783Z,65.80
2022-08-05T05:17:55.728Z,65.80
2022-08-05T05:23:08.003Z,65.70
2022-08-05T05:28:11.971Z,65.90
2022-08-05T05:33:17.026Z,65.90
2022-08-05T05:38:22.823Z,65.70
2022-08-05T05:43:58.160Z,65.60
2022-08-05T05:48:51.827Z,66.00
2022-08-05T05:53:59.615Z,65.70
2022-08-05T05:59:05.816Z,65.30
2022-08-05T06:04:11.794Z,65.40
2022-08-05T06:09:17.645Z,65.30
2022-08-05T06:14:29.045Z,64.60
2022-08-05T06:19:34.127Z,64.70
2022-08-05T06:24:48.108Z,65.00
2022-08-05T06:30:04.174Z,64.30
2022-08-05T06:35:15.476Z,64.30
2022-08-05T06:40:33.009Z,63.70
2022-08-05T06:45:44.884Z,63.90
2022-08-05T06:50:57.971Z,64.30
2022-08-05T06:56:03.549Z,64.20
2022-08-05T07:01:06.882Z,63.90
2022-08-05T07:06:14.188Z,63.20
2022-08-05T07:11:17.775Z,65.20
2022-08-05T07:18:08.591Z,66.50
2022-08-05T07:22:07.212Z,63.20
2022-08-05T07:27:10.391Z,61.20
2022-08-05T07:32:12.633Z,57.10
2022-08-05T07:37:16.900Z,53.50
2022-08-05T07:42:19.188Z,54.30
2022-08-05T07:47:42.038Z,53.10
2022-08-05T07:52:45.304Z,54.70
2022-08-05T07:58:02.488Z,53.50
2022-08-05T08:03:15.375Z,53.10
2022-08-05T08:08:19.801Z,51.50
2022-08-05T08:13:29.132Z,52.10
2022-08-05T08:18:31.795Z,51.90
2022-08-05T08:24:02.683Z,52.00
2022-08-05T08:29:02.048Z,52.60
2022-08-05T08:34:30.706Z,51.80
2022-08-05T08:39:35.674Z,50.40
2022-08-05T08:45:24.220Z,51.10
2022-08-05T08:50:31.102Z,52.50
2022-08-05T08:56:02.541Z,51.30
2022-08-05T09:00:51.483Z,50.70
2022-08-05T09:06:08.923Z,51.90
2022-08-05T09:11:15.128Z,51.20
2022-08-05T09:16:17.405Z,50.20
2022-08-05T09:22:17.825Z,50.30
2022-08-05T09:26:51.879Z,51.40
2022-08-05T09:32:41.920Z,50.20
2022-08-05T09:38:16.304Z,51.30
2022-08-05T09:42:49.812Z,49.80
2022-08-05T09:47:56.797Z,51.80
2022-08-05T09:53:00.028Z,56.00
2022-08-05T09:58:11.406Z,59.60
2022-08-05T10:03:13.917Z,60.90
2022-08-05T10:08:36.010Z,62.90
2022-08-05T10:13:47.792Z,63.50
2022-08-05T10:18:51.577Z,63.60
2022-08-05T10:24:00.386Z,63.10
2022-08-05T10:29:03.137Z,64.70
2022-08-05T10:34:08.090Z,64.10
2022-08-05T10:39:24.358Z,64.30
2022-08-05T10:44:29.534Z,65.10
2022-08-05T10:49:33.334Z,65.10
2022-08-05T10:55:10.218Z,66.50
2022-08-05T11:00:20.833Z,66.50
2022-08-05T11:05:29.108Z,67.20
2022-08-05T11:10:37.334Z,66.30
2022-08-05T11:15:58.955Z,66.00
2022-08-05T11:21:06.275Z,66.70
2022-08-05T11:26:29.201Z,66.70
2022-08-05T11:31:56.486Z,66.80
2022-08-05T11:36:57.572Z,66.80
2022-08-05T11:42:01.767Z,66.60
2022-08-05T11:47:10.450Z,67.10
2022-08-05T11:52:29.419Z,67.00
2022-08-05T11:58:08.457Z,67.30
2022-08-05T12:02:54.525Z,67.40
2022-08-05T12:08:10.444Z,66.90
2022-08-05T12:13:18.675Z,66.30
2022-08-05T12:18:39.840Z,66.90
2022-08-05T12:24:09.383Z,68.20
2022-08-05T12:29:17.853Z,67.60
2022-08-05T12:34:31.566Z,68.10
2022-08-05T12:39:38.798Z,68.20
2022-08-05T12:44:41.267Z,67.60
2022-08-05T12:50:02.190Z,68.80
2022-08-05T12:55:28.355Z,67.70
2022-08-05T13:02:00.627Z,69.50
2022-08-05T13:05:54.097Z,69.20
2022-08-05T13:11:02.233Z,69.50
2022-08-05T13:16:12.590Z,70.20
2022-08-05T13:21:17.709Z,71.60
2022-08-05T13:26:29.778Z,71.10
2022-08-05T13:32:03.473Z,70.40
2022-08-05T13:36:54.836Z,70.00
2022-08-05T13:41:57.085Z,70.20
2022-08-05T13:47:04.583Z,70.70
2022-08-05T13:52:12.665Z,70.80
2022-08-05T13:57:16.078Z,71.10
2022-08-05T14:02:19.973Z,70.00
2022-08-05T14:08:05.549Z,70.60
2022-08-05T14:12:54.503Z,70.30
2022-08-05T14:17:59.803Z,70.00
2022-08-05T14:23:03.046Z,70.80
2022-08-05T14:28:05.347Z,71.10
2022-08-05T14:33:09.996Z,71.50
2022-08-05T14:38:27.769Z,71.40
2022-08-05T14:44:01.811Z,72.20
2022-08-05T14:49:06.875Z,72.60
2022-08-05T14:54:27.639Z,72.90
2022-08-05T14:59:35.803Z,73.30
2022-08-05T15:04:39.317Z,72.70
2022-08-05T15:09:52.657Z,72.70
2022-08-05T15:14:57.996Z,73.10
2022-08-05T15:20:00.240Z,73.40
2022-08-05T15:25:13.971Z,73.80
2022-08-05T15:30:16.955Z,74.10
2022-08-05T15:35:19.248Z,73.30
2022-08-05T15:40:59.837Z,73.90
2022-08-05T15:45:46.816Z,73.90
2022-08-05T15:50:49.042Z,73.20
2022-08-05T15:56:02.761Z,73.00
2022-08-05T16:01:16.750Z,73.30
2022-08-05T16:06:22.781Z,73.20
2022-08-05T16:11:42.862Z,74.40
2022-08-05T16:16:47.350Z,73.90
2022-08-05T16:21:59.370Z,73.70
2022-08-05T16:27:04.635Z,73.40
2022-08-05T16:32:10.083Z,73.90
2022-08-05T16:38:02.929Z,74.40
2022-08-05T16:42:36.007Z,74.90
2022-08-05T16:47:48.394Z,74.50
2022-08-05T16:52:57.887Z,74.30
2022-08-05T16:58:01.633Z,74.40
2022-08-05T17:03:19.868Z,75.00
2022-08-05T17:08:35.725Z,74.80
2022-08-05T17:13:45.990Z,74.60
2022-08-05T17:18:48.324Z,75.10
2022-08-05T17:24:05.269Z,75.00
2022-08-05T17:29:10.563Z,74.90
2022-08-05T17:34:12.839Z,75.20
2022-08-05T17:39:23.984Z,75.50
2022-08-05T17:44:32.570Z,75.90
2022-08-05T17:50:00.029Z,76.10
2022-08-05T17:54:57.186Z,75.20
2022-08-05T18:00:05.528Z,74.60
2022-08-05T18:05:08.788Z,74.30
2022-08-05T18:10:20.718Z,73.80
2022-08-05T18:15:24.406Z,73.70
2022-08-05T18:20:29.663Z,73.50
2022-08-05T18:25:34.094Z,73.30
2022-08-05T18:30:39.039Z,73.20
2022-08-05T18:36:01.104Z,73.00
2022-08-05T18:42:00.603Z,73.00
2022-08-05T18:46:29.758Z,73.00
2022-08-05T18:52:05.204Z,72.80
2022-08-05T18:57:15.270Z,73.50
2022-08-05T19:02:28.591Z,72.80
2022-08-05T19:07:46.151Z,72.80
2022-08-05T19:12:49.363Z,72.40
2022-08-05T19:18:08.579Z,72.40
2022-08-05T19:24:03.559Z,72.50
2022-08-05T19:28:35.077Z,72.70
2022-08-05T19:33:38.607Z,72.80
2022-08-05T19:38:43.923Z,73.00
2022-08-05T19:44:07.011Z,72.90
2022-08-05T19:49:12.500Z,72.80
2022-08-05T19:54:26.777Z,72.70
2022-08-05T20:00:00.974Z,72.60
2022-08-05T20:04:58.834Z,72.70
2022-08-05T20:10:02.503Z,72.60
2022-08-05T20:15:15.895Z,72.60
2022-08-05T20:20:38.882Z,72.70
2022-08-05T20:25:41.371Z,72.80
2022-08-05T20:30:43.764Z,72.90
2022-08-05T20:35:47.465Z,72.70
2022-08-05T20:40:50.364Z,72.90
2022-08-05T20:45:56.077Z,73.00
2022-08-05T20:50:59.428Z,72.80
2022-08-05T20:56:10.479Z,73.00
2022-08-05T21:01:13.368Z,72.90
2022-08-05T21:06:28.356Z,72.70
2022-08-05T21:12:07.533Z,72.60
2022-08-05T21:16:53.609Z,72.30
2022-08-05T21:21:55.833Z,72.40
2022-08-05T21:26:58.852Z,72.10
2022-08-05T21:32:02.580Z,70.90
2022-08-05T21:37:05.209Z,70.70
2022-08-05T21:42:07.739Z,70.70
2022-08-05T21:47:57.259Z,70.40
2022-08-05T21:52:52.468Z,70.10
2022-08-05T21:57:55.136Z,70.30
2022-08-05T22:02:58.234Z,70.30
2022-08-05T22:08:02.218Z,69.80
2022-08-05T22:13:09.146Z,69.80
2022-08-05T22:18:27.267Z,69.70
2022-08-05T22:24:01.795Z,69.40
2022-08-05T22:29:06.750Z,69.70
2022-08-05T22:34:09.022Z,69.80
2022-08-05T22:39:21.462Z,69.60
2022-08-05T22:44:23.872Z,69.40
2022-08-05T22:50:21.509Z,69.40
2022-08-05T22:54:49.835Z,69.20
2022-08-05T22:59:54.080Z,69.40
2022-08-05T23:04:57.085Z,69.00
2022-08-05T23:10:02.129Z,68.80
2022-08-05T23:15:08.674Z,68.90
2022-08-05T23:20:17.631Z,68.80
2022-08-05T23:25:53.007Z,68.60
2022-08-05T23:30:43.873Z,68.40
2022-08-05T23:35:56.403Z,68.20
2022-08-05T23:40:58.880Z,68.10
2022-08-05T23:46:20.592Z,67.80
2022-08-05T23:51:24.267Z,67.60
2022-08-05T23:56:27.291Z,67.40
